createdAt,value
2018-12-31T00:00:39.940Z,1016.57
2018-12-31T00:01:39.998Z,1016.58
2018-12-31T00:02:39.965Z,1016.59
2018-12-31T00:03:39.903Z,1016.57
2018-12-31T00:04:39.890Z,1016.55
2018-12-31T00:05:39.879Z,1016.56
2018-12-31T00:06:39.867Z,1016.54
2018-12-31T00:07:39.859Z,1016.51
2018-12-31T00:08:39.843Z,1016.54
2018-12-31T00:09:39.830Z,1016.53
2018-12-31T00:10:39.819Z,1016.53
2018-12-31T00:11:39.807Z,1016.52
2018-12-31T00:12:39.795Z,1016.55
2018-12-31T00:13:39.784Z,1016.54
2018-12-31T00:14:39.772Z,1016.49
2018-12-31T00:15:39.759Z,1016.50
2018-12-31T00:16:39.748Z,1016.49
2018-12-31T00:17:39.736Z,1016.51
2018-12-31T00:18:39.817Z,1016.51
2018-12-31T00:19:39.711Z,1016.52
2018-12-31T00:20:39.698Z,1016.48
2018-12-31T00:21:39.688Z,1016.50
2018-12-31T00:22:39.674Z,1016.48
2018-12-31T00:23:39.666Z,1016.54
2018-12-31T00:24:39.650Z,1016.50
2018-12-31T00:25:39.638Z,1016.50
2018-12-31T00:26:39.625Z,1016.49
2018-12-31T00:27:39.613Z,1016.52
2018-12-31T00:28:39.602Z,1016.53
2018-12-31T00:29:39.590Z,1016.47
2018-12-31T00:30:39.577Z,1016.53
2018-12-31T00:31:39.565Z,1016.48
2018-12-31T00:32:39.552Z,1016.49
2018-12-31T00:33:39.540Z,1016.45
2018-12-31T00:34:39.528Z,1016.48
2018-12-31T00:35:39.517Z,1016.50
2018-12-31T00:36:39.504Z,1016.50
2018-12-31T00:37:39.491Z,1016.46
2018-12-31T00:38:39.479Z,1016.50
2018-12-31T00:39:39.467Z,1016.53
2018-12-31T00:40:39.454Z,1016.49
2018-12-31T00:41:39.442Z,1016.49
2018-12-31T00:42:39.430Z,1016.48
2018-12-31T00:43:39.419Z,1016.50
2018-12-31T00:44:39.405Z,1016.51
2018-12-31T00:45:39.395Z,1016.48
2018-12-31T00:46:39.382Z,1016.48
2018-12-31T00:47:39.370Z,1016.48
2018-12-31T00:48:39.356Z,1016.46
2018-12-31T00:49:39.345Z,1016.52
2018-12-31T00:50:39.334Z,1016.48
2018-12-31T00:51:39.322Z,1016.51
2018-12-31T00:52:39.308Z,1016.51
2018-12-31T00:53:39.298Z,1016.51
2018-12-31T00:54:39.285Z,1016.51
2018-12-31T00:55:39.273Z,1016.50
2018-12-31T00:56:39.264Z,1016.50
2018-12-31T00:57:39.250Z,1016.48
2018-12-31T00:58:39.287Z,1016.52
2018-12-31T00:59:39.224Z,1016.49
2018-12-31T01:00:39.211Z,1016.52
2018-12-31T01:01:39.200Z,1016.51
2018-12-31T01:02:39.188Z,1016.50
2018-12-31T01:03:39.176Z,1016.54
2018-12-31T01:04:39.163Z,1016.53
2018-12-31T01:05:39.151Z,1016.55
2018-12-31T01:06:39.140Z,1016.57
2018-12-31T01:07:39.128Z,1016.54
2018-12-31T01:08:39.115Z,1016.56
2018-12-31T01:09:39.106Z,1016.53
2018-12-31T01:10:39.091Z,1016.55
2018-12-31T01:11:39.079Z,1016.56
2018-12-31T01:12:39.068Z,1016.55
2018-12-31T01:13:39.055Z,1016.54
2018-12-31T01:14:39.043Z,1016.55
2018-12-31T01:15:39.031Z,1016.52
2018-12-31T01:16:39.018Z,1016.53
2018-12-31T01:17:39.009Z,1016.56
2018-12-31T01:18:38.994Z,1016.57
2018-12-31T01:19:38.983Z,1016.58
2018-12-31T01:20:38.973Z,1016.58
2018-12-31T01:21:38.958Z,1016.59
2018-12-31T01:22:38.946Z,1016.58
2018-12-31T01:23:38.934Z,1016.60
2018-12-31T01:24:38.921Z,1016.58
2018-12-31T01:25:38.911Z,1016.60
2018-12-31T01:26:38.898Z,1016.64
2018-12-31T01:27:38.886Z,1016.63
2018-12-31T01:28:38.874Z,1016.60
2018-12-31T01:29:38.864Z,1016.59
2018-12-31T01:30:38.851Z,1016.62
2018-12-31T01:31:38.839Z,1016.59
2018-12-31T01:32:38.826Z,1016.56
2018-12-31T01:33:38.814Z,1016.57
2018-12-31T01:34:38.803Z,1016.55
2018-12-31T01:35:38.791Z,1016.59
2018-12-31T01:36:38.778Z,1016.58
2018-12-31T01:37:38.769Z,1016.61
2018-12-31T01:38:38.755Z,1016.56
2018-12-31T01:39:38.745Z,1016.58
2018-12-31T01:40:38.730Z,1016.60
2018-12-31T01:41:38.719Z,1016.59
2018-12-31T01:42:38.707Z,1016.51
2018-12-31T01:43:38.699Z,1016.52
2018-12-31T01:44:38.684Z,1016.52
2018-12-31T01:45:38.872Z,1016.53
2018-12-31T01:46:38.660Z,1016.57
2018-12-31T01:47:38.650Z,1016.55
2018-12-31T01:48:38.636Z,1016.55
2018-12-31T01:49:38.624Z,1016.56
2018-12-31T01:50:38.612Z,1016.57
2018-12-31T01:51:38.601Z,1016.60
2018-12-31T01:52:38.588Z,1016.53
2018-12-31T01:53:38.577Z,1016.56
2018-12-31T01:54:38.565Z,1016.58
2018-12-31T01:55:38.554Z,1016.57
2018-12-31T01:56:38.591Z,1016.55
2018-12-31T01:57:38.530Z,1016.55
2018-12-31T01:58:38.518Z,1016.52
2018-12-31T01:59:38.508Z,1016.53
2018-12-31T02:00:38.495Z,1016.56
2018-12-31T02:01:38.565Z,1016.53
2018-12-31T02:02:38.471Z,1016.54
2018-12-31T02:03:38.459Z,1016.56
2018-12-31T02:04:38.447Z,1016.58
2018-12-31T02:05:38.444Z,1016.61
2018-12-31T02:06:38.423Z,1016.61
2018-12-31T02:07:38.412Z,1016.66
2018-12-31T02:08:38.401Z,1016.67
2018-12-31T02:09:38.392Z,1016.67
2018-12-31T02:10:38.377Z,1016.73
2018-12-31T02:11:38.365Z,1016.73
2018-12-31T02:12:38.353Z,1016.73
2018-12-31T02:13:38.341Z,1016.70
2018-12-31T02:14:38.329Z,1016.73
2018-12-31T02:15:38.318Z,1016.76
2018-12-31T02:16:38.306Z,1016.78
2018-12-31T02:17:38.294Z,1016.82
2018-12-31T02:18:38.284Z,1016.80
2018-12-31T02:19:38.272Z,1016.80
2018-12-31T02:20:38.258Z,1016.82
2018-12-31T02:21:38.247Z,1016.80
2018-12-31T02:22:38.235Z,1016.80
2018-12-31T02:23:38.223Z,1016.81
2018-12-31T02:24:38.211Z,1016.84
2018-12-31T02:25:38.199Z,1016.84
2018-12-31T02:26:38.188Z,1016.85
2018-12-31T02:27:38.177Z,1016.87
2018-12-31T02:28:38.164Z,1016.90
2018-12-31T02:29:38.152Z,1016.92
2018-12-31T02:30:38.143Z,1016.94
2018-12-31T02:31:38.129Z,1016.96
2018-12-31T02:32:38.119Z,1017.01
2018-12-31T02:33:38.106Z,1017.02
2018-12-31T02:34:38.094Z,1017.03
2018-12-31T02:35:38.082Z,1017.01
2018-12-31T02:36:38.069Z,1017.00
2018-12-31T02:37:38.063Z,1017.02
2018-12-31T02:38:38.046Z,1017.00
2018-12-31T02:39:38.035Z,1017.01
2018-12-31T02:40:38.023Z,1016.97
2018-12-31T02:41:38.012Z,1017.01
2018-12-31T02:42:38.000Z,1017.00
2018-12-31T02:43:37.988Z,1016.97
2018-12-31T02:44:37.978Z,1016.97
2018-12-31T02:45:37.965Z,1016.91
2018-12-31T02:46:37.953Z,1016.93
2018-12-31T02:47:37.944Z,1016.96
2018-12-31T02:48:37.981Z,1016.99
2018-12-31T02:49:37.917Z,1016.97
2018-12-31T02:50:37.908Z,1016.95
2018-12-31T02:51:37.895Z,1016.95
2018-12-31T02:52:37.884Z,1016.93
2018-12-31T02:53:37.871Z,1016.93
2018-12-31T02:54:37.860Z,1016.95
2018-12-31T02:55:37.848Z,1016.88
2018-12-31T02:56:37.836Z,1016.89
2018-12-31T02:57:37.825Z,1016.87
2018-12-31T02:58:37.814Z,1016.89
2018-12-31T02:59:37.803Z,1016.83
2018-12-31T03:00:37.791Z,1016.84
2018-12-31T03:01:37.783Z,1016.85
2018-12-31T03:02:37.775Z,1016.84
2018-12-31T03:03:37.809Z,1016.83
2018-12-31T03:04:37.743Z,1016.82
2018-12-31T03:05:37.732Z,1016.82
2018-12-31T03:06:37.720Z,1016.78
2018-12-31T03:07:37.709Z,1016.80
2018-12-31T03:08:37.697Z,1016.77
2018-12-31T03:09:37.687Z,1016.74
2018-12-31T03:10:37.676Z,1016.76
2018-12-31T03:11:37.663Z,1016.72
2018-12-31T03:12:37.652Z,1016.75
2018-12-31T03:13:37.642Z,1016.75
2018-12-31T03:14:37.628Z,1016.72
2018-12-31T03:15:37.616Z,1016.74
2018-12-31T03:16:37.606Z,1016.67
2018-12-31T03:17:37.595Z,1016.71
2018-12-31T03:18:37.582Z,1016.74
2018-12-31T03:19:37.571Z,1016.69
2018-12-31T03:20:37.560Z,1016.65
2018-12-31T03:21:37.548Z,1016.67
2018-12-31T03:22:37.537Z,1016.70
2018-12-31T03:23:37.524Z,1016.75
2018-12-31T03:24:37.513Z,1016.76
2018-12-31T03:25:37.501Z,1016.73
2018-12-31T03:26:37.490Z,1016.68
2018-12-31T03:27:37.478Z,1016.65
2018-12-31T03:28:37.467Z,1016.62
2018-12-31T03:29:37.455Z,1016.59
2018-12-31T03:30:37.449Z,1016.57
2018-12-31T03:31:37.445Z,1016.55
2018-12-31T03:32:37.423Z,1016.54
2018-12-31T03:33:37.460Z,1016.54
2018-12-31T03:34:37.518Z,1016.54
2018-12-31T03:35:37.387Z,1016.55
2018-12-31T03:36:37.376Z,1016.48
2018-12-31T03:37:37.362Z,1016.50
2018-12-31T03:38:37.352Z,1016.49
2018-12-31T03:39:37.351Z,1016.46
2018-12-31T03:40:37.328Z,1016.45
2018-12-31T03:41:37.319Z,1016.45
2018-12-31T03:42:37.307Z,1016.47
2018-12-31T03:43:37.296Z,1016.48
2018-12-31T03:44:37.290Z,1016.51
2018-12-31T03:45:37.276Z,1016.46
2018-12-31T03:46:37.262Z,1016.47
2018-12-31T03:47:37.251Z,1016.46
2018-12-31T03:48:37.239Z,1016.46
2018-12-31T03:49:37.228Z,1016.50
2018-12-31T03:50:37.221Z,1016.49
2018-12-31T03:51:37.205Z,1016.52
2018-12-31T03:52:37.205Z,1016.53
2018-12-31T03:53:37.187Z,1016.49
2018-12-31T03:54:37.172Z,1016.52
2018-12-31T03:55:37.161Z,1016.57
2018-12-31T03:56:37.149Z,1016.57
2018-12-31T03:57:37.138Z,1016.54
2018-12-31T03:58:37.128Z,1016.57
2018-12-31T03:59:37.116Z,1016.56
2018-12-31T04:00:37.106Z,1016.57
2018-12-31T04:01:37.094Z,1016.57
2018-12-31T04:02:37.084Z,1016.58
2018-12-31T04:03:37.076Z,1016.58
2018-12-31T04:04:37.060Z,1016.60
2018-12-31T04:05:37.070Z,1016.67
2018-12-31T04:06:37.039Z,1016.68
2018-12-31T04:07:37.029Z,1016.65
2018-12-31T04:08:37.018Z,1016.69
2018-12-31T04:09:37.006Z,1016.65
2018-12-31T04:10:36.997Z,1016.62
2018-12-31T04:11:36.989Z,1016.64
2018-12-31T04:12:36.972Z,1016.60
2018-12-31T04:13:36.966Z,1016.62
2018-12-31T04:14:36.952Z,1016.62
2018-12-31T04:15:36.947Z,1016.55
2018-12-31T04:16:36.928Z,1016.53
2018-12-31T04:17:36.921Z,1016.52
2018-12-31T04:18:36.906Z,1016.57
2018-12-31T04:19:36.899Z,1016.52
2018-12-31T04:20:36.884Z,1016.48
2018-12-31T04:21:36.875Z,1016.46
2018-12-31T04:22:36.863Z,1016.46
2018-12-31T04:23:36.852Z,1016.45
2018-12-31T04:24:36.840Z,1016.44
2018-12-31T04:25:36.828Z,1016.44
2018-12-31T04:26:36.817Z,1016.45
2018-12-31T04:27:36.812Z,1016.44
2018-12-31T04:28:36.805Z,1016.50
2018-12-31T04:29:36.784Z,1016.46
2018-12-31T04:30:36.778Z,1016.50
2018-12-31T04:31:36.764Z,1016.51
2018-12-31T04:32:36.751Z,1016.51
2018-12-31T04:33:36.739Z,1016.47
2018-12-31T04:34:36.732Z,1016.55
2018-12-31T04:35:36.769Z,1016.58
2018-12-31T04:36:36.706Z,1016.53
2018-12-31T04:37:36.695Z,1016.57
2018-12-31T04:38:36.689Z,1016.54
2018-12-31T04:39:36.677Z,1016.54
2018-12-31T04:40:36.662Z,1016.57
2018-12-31T04:41:36.650Z,1016.57
2018-12-31T04:42:36.665Z,1016.61
2018-12-31T04:43:36.631Z,1016.57
2018-12-31T04:44:36.618Z,1016.50
2018-12-31T04:45:36.607Z,1016.49
2018-12-31T04:46:36.596Z,1016.48
2018-12-31T04:47:36.585Z,1016.45
2018-12-31T04:48:36.577Z,1016.46
2018-12-31T04:49:36.766Z,1016.48
2018-12-31T04:50:36.553Z,1016.40
2018-12-31T04:51:36.547Z,1016.46
2018-12-31T04:52:36.529Z,1016.52
2018-12-31T04:53:36.519Z,1016.49
2018-12-31T04:54:36.511Z,1016.49
2018-12-31T04:55:43.966Z,1016.50
2018-12-31T04:56:36.486Z,1016.50
2018-12-31T04:57:36.479Z,1016.51
2018-12-31T04:58:36.465Z,1016.49
2018-12-31T04:59:36.453Z,1016.50
2018-12-31T05:00:36.448Z,1016.53
2018-12-31T05:01:36.432Z,1016.49
2018-12-31T05:02:36.421Z,1016.55
2018-12-31T05:03:36.411Z,1016.55
2018-12-31T05:04:36.399Z,1016.58
2018-12-31T05:05:36.388Z,1016.59
2018-12-31T05:06:36.379Z,1016.60
2018-12-31T05:07:36.368Z,1016.60
2018-12-31T05:08:36.357Z,1016.60
2018-12-31T05:09:36.346Z,1016.57
2018-12-31T05:10:36.335Z,1016.60
2018-12-31T05:11:36.326Z,1016.62
2018-12-31T05:12:36.314Z,1016.62
2018-12-31T05:13:36.307Z,1016.60
2018-12-31T05:14:36.299Z,1016.62
2018-12-31T05:15:36.328Z,1016.62
2018-12-31T05:16:36.271Z,1016.60
2018-12-31T05:17:36.261Z,1016.60
2018-12-31T05:18:36.251Z,1016.60
2018-12-31T05:19:36.240Z,1016.60
2018-12-31T05:20:36.334Z,1016.62
2018-12-31T05:21:36.220Z,1016.65
2018-12-31T05:22:36.210Z,1016.63
2018-12-31T05:23:36.198Z,1016.66
2018-12-31T05:24:36.187Z,1016.64
2018-12-31T05:25:36.175Z,1016.64
2018-12-31T05:26:36.172Z,1016.67
2018-12-31T05:27:36.157Z,1016.68
2018-12-31T05:28:36.144Z,1016.70
2018-12-31T05:29:36.138Z,1016.70
2018-12-31T05:30:36.124Z,1016.68
2018-12-31T05:31:36.112Z,1016.65
2018-12-31T05:32:36.102Z,1016.68
2018-12-31T05:33:36.090Z,1016.63
2018-12-31T05:34:36.080Z,1016.66
2018-12-31T05:35:36.069Z,1016.69
2018-12-31T05:36:36.058Z,1016.64
2018-12-31T05:37:36.047Z,1016.63
2018-12-31T05:38:36.038Z,1016.67
2018-12-31T05:39:36.026Z,1016.67
2018-12-31T05:40:36.015Z,1016.66
2018-12-31T05:41:36.005Z,1016.67
2018-12-31T05:42:35.993Z,1016.69
2018-12-31T05:43:35.983Z,1016.72
2018-12-31T05:44:35.973Z,1016.71
2018-12-31T05:45:35.960Z,1016.70
2018-12-31T05:46:35.952Z,1016.74
2018-12-31T05:47:35.942Z,1016.78
2018-12-31T05:48:35.928Z,1016.75
2018-12-31T05:49:35.917Z,1016.83
2018-12-31T05:50:35.907Z,1016.85
2018-12-31T05:51:35.896Z,1016.82
2018-12-31T05:52:35.884Z,1016.84
2018-12-31T05:53:35.873Z,1016.87
2018-12-31T05:54:35.862Z,1016.85
2018-12-31T05:55:35.851Z,1016.87
2018-12-31T05:56:35.840Z,1016.88
2018-12-31T05:57:35.837Z,1016.91
2018-12-31T05:58:35.818Z,1016.92
2018-12-31T05:59:35.808Z,1016.92
2018-12-31T06:00:35.796Z,1016.92
2018-12-31T06:01:35.785Z,1016.95
2018-12-31T06:02:35.787Z,1016.98
2018-12-31T06:03:35.764Z,1016.97
2018-12-31T06:04:35.753Z,1017.00
2018-12-31T06:05:35.742Z,1016.96
2018-12-31T06:06:35.731Z,1016.97
2018-12-31T06:07:35.720Z,1016.96
2018-12-31T06:08:35.712Z,1016.98
2018-12-31T06:09:35.699Z,1016.99
2018-12-31T06:10:35.687Z,1016.98
2018-12-31T06:11:35.678Z,1016.95
2018-12-31T06:12:35.665Z,1016.95
2018-12-31T06:13:35.655Z,1016.94
2018-12-31T06:14:35.644Z,1016.96
2018-12-31T06:15:35.633Z,1016.92
2018-12-31T06:16:35.621Z,1016.96
2018-12-31T06:17:35.611Z,1016.92
2018-12-31T06:18:35.600Z,1016.96
2018-12-31T06:19:35.589Z,1016.94
2018-12-31T06:20:35.578Z,1016.89
2018-12-31T06:21:35.567Z,1016.90
2018-12-31T06:22:35.557Z,1016.91
2018-12-31T06:23:35.547Z,1016.90
2018-12-31T06:24:35.534Z,1016.94
2018-12-31T06:25:35.523Z,1016.96
2018-12-31T06:26:35.513Z,1016.96
2018-12-31T06:27:35.506Z,1016.96
2018-12-31T06:28:35.490Z,1016.94
2018-12-31T06:29:35.479Z,1016.93
2018-12-31T06:30:35.470Z,1016.96
2018-12-31T06:31:35.458Z,1016.94
2018-12-31T06:32:35.448Z,1016.87
2018-12-31T06:33:35.435Z,1016.89
2018-12-31T06:34:35.424Z,1016.94
2018-12-31T06:35:35.414Z,1016.89
2018-12-31T06:36:35.403Z,1016.88
2018-12-31T06:37:35.391Z,1016.91
2018-12-31T06:38:35.380Z,1016.90
2018-12-31T06:39:35.369Z,1016.92
2018-12-31T06:40:35.361Z,1016.93
2018-12-31T06:41:35.347Z,1016.90
2018-12-31T06:42:35.336Z,1016.90
2018-12-31T06:43:35.325Z,1016.91
2018-12-31T06:44:35.313Z,1016.93
2018-12-31T06:45:35.302Z,1016.92
2018-12-31T06:46:35.294Z,1016.93
2018-12-31T06:47:35.280Z,1016.91
2018-12-31T06:48:35.269Z,1016.90
2018-12-31T06:49:35.259Z,1016.98
2018-12-31T06:50:35.248Z,1016.97
2018-12-31T06:51:35.237Z,1016.96
2018-12-31T06:52:35.225Z,1017.01
2018-12-31T06:53:35.215Z,1016.99
2018-12-31T06:54:35.203Z,1017.01
2018-12-31T06:55:35.192Z,1017.02
2018-12-31T06:56:35.181Z,1017.08
2018-12-31T06:57:35.173Z,1017.07
2018-12-31T06:58:35.159Z,1017.04
2018-12-31T06:59:35.148Z,1017.07
2018-12-31T07:00:35.136Z,1017.06
2018-12-31T07:01:35.126Z,1017.06
2018-12-31T07:02:35.114Z,1017.14
2018-12-31T07:03:35.104Z,1017.12
2018-12-31T07:04:35.092Z,1017.13
2018-12-31T07:05:35.082Z,1017.15
2018-12-31T07:06:35.071Z,1017.15
2018-12-31T07:07:35.060Z,1017.15
2018-12-31T07:08:35.065Z,1017.19
2018-12-31T07:09:35.040Z,1017.17
2018-12-31T07:10:35.027Z,1017.16
2018-12-31T07:11:35.016Z,1017.21
2018-12-31T07:12:35.005Z,1017.23
2018-12-31T07:13:34.996Z,1017.23
2018-12-31T07:14:34.984Z,1017.26
2018-12-31T07:15:34.973Z,1017.31
2018-12-31T07:16:34.961Z,1017.29
2018-12-31T07:17:34.951Z,1017.25
2018-12-31T07:18:34.940Z,1017.29
2018-12-31T07:19:34.929Z,1017.29
2018-12-31T07:20:34.918Z,1017.28
2018-12-31T07:21:34.908Z,1017.34
2018-12-31T07:22:34.896Z,1017.31
2018-12-31T07:23:34.886Z,1017.31
2018-12-31T07:24:34.874Z,1017.32
2018-12-31T07:25:34.863Z,1017.32
2018-12-31T07:26:34.854Z,1017.31
2018-12-31T07:27:34.842Z,1017.31
2018-12-31T07:28:34.830Z,1017.34
2018-12-31T07:29:34.820Z,1017.31
2018-12-31T07:30:34.810Z,1017.33
2018-12-31T07:31:34.802Z,1017.37
2018-12-31T07:32:34.788Z,1017.35
2018-12-31T07:33:34.776Z,1017.36
2018-12-31T07:34:34.766Z,1017.35
2018-12-31T07:35:34.757Z,1017.34
2018-12-31T07:36:34.744Z,1017.36
2018-12-31T07:37:34.734Z,1017.38
2018-12-31T07:38:34.723Z,1017.40
2018-12-31T07:39:34.712Z,1017.36
2018-12-31T07:40:34.700Z,1017.38
2018-12-31T07:41:34.690Z,1017.37
2018-12-31T07:42:34.680Z,1017.39
2018-12-31T07:43:34.669Z,1017.40
2018-12-31T07:44:34.666Z,1017.41
2018-12-31T07:45:34.647Z,1017.43
2018-12-31T07:46:34.636Z,1017.43
2018-12-31T07:47:34.625Z,1017.46
2018-12-31T07:48:34.614Z,1017.43
2018-12-31T07:49:34.603Z,1017.39
2018-12-31T07:50:34.593Z,1017.37
2018-12-31T07:51:34.581Z,1017.37
2018-12-31T07:52:34.570Z,1017.35
2018-12-31T07:53:34.559Z,1017.36
2018-12-31T07:54:34.549Z,1017.41
2018-12-31T07:55:34.538Z,1017.44
2018-12-31T07:56:34.527Z,1017.47
2018-12-31T07:57:34.516Z,1017.45
2018-12-31T07:58:34.506Z,1017.48
2018-12-31T07:59:34.495Z,1017.48
2018-12-31T08:00:34.485Z,1017.43
2018-12-31T08:01:34.473Z,1017.51
2018-12-31T08:02:34.462Z,1017.49
2018-12-31T08:03:34.504Z,1017.57
2018-12-31T08:04:34.440Z,1017.55
2018-12-31T08:05:34.430Z,1017.53
2018-12-31T08:06:34.422Z,1017.54
2018-12-31T08:07:34.409Z,1017.55
2018-12-31T08:08:34.397Z,1017.56
2018-12-31T08:09:34.387Z,1017.59
2018-12-31T08:10:34.377Z,1017.60
2018-12-31T08:11:34.366Z,1017.66
2018-12-31T08:12:34.354Z,1017.67
2018-12-31T08:13:34.346Z,1017.65
2018-12-31T08:14:34.333Z,1017.66
2018-12-31T08:15:34.323Z,1017.72
2018-12-31T08:16:34.312Z,1017.70
2018-12-31T08:17:34.301Z,1017.74
2018-12-31T08:18:34.291Z,1017.74
2018-12-31T08:19:34.280Z,1017.70
2018-12-31T08:20:34.268Z,1017.74
2018-12-31T08:21:34.258Z,1017.75
2018-12-31T08:22:34.249Z,1017.74
2018-12-31T08:23:34.237Z,1017.78
2018-12-31T08:24:34.225Z,1017.78
2018-12-31T08:25:34.217Z,1017.74
2018-12-31T08:26:34.205Z,1017.76
2018-12-31T08:27:34.213Z,1017.80
2018-12-31T08:28:34.183Z,1017.82
2018-12-31T08:29:34.172Z,1017.82
2018-12-31T08:30:34.168Z,1017.86
2018-12-31T08:31:34.151Z,1017.87
2018-12-31T08:32:34.139Z,1017.82
2018-12-31T08:33:34.129Z,1017.87
2018-12-31T08:34:34.118Z,1017.87
2018-12-31T08:35:34.108Z,1017.84
2018-12-31T08:36:34.097Z,1017.91
2018-12-31T08:37:34.085Z,1017.90
2018-12-31T08:38:34.074Z,1017.90
2018-12-31T08:39:34.063Z,1017.91
2018-12-31T08:40:34.052Z,1017.89
2018-12-31T08:41:34.042Z,1017.92
2018-12-31T08:42:34.032Z,1017.93
2018-12-31T08:43:34.021Z,1017.94
2018-12-31T08:44:34.008Z,1017.94
2018-12-31T08:45:33.998Z,1017.91
2018-12-31T08:46:33.987Z,1017.95
2018-12-31T08:47:33.977Z,1017.91
2018-12-31T08:48:33.965Z,1017.92
2018-12-31T08:49:34.005Z,1017.98
2018-12-31T08:50:33.943Z,1017.97
2018-12-31T08:51:33.933Z,1017.96
2018-12-31T08:52:33.924Z,1018.00
2018-12-31T08:53:33.911Z,1017.95
2018-12-31T08:54:33.902Z,1017.98
2018-12-31T08:55:33.890Z,1017.96
2018-12-31T08:56:33.878Z,1017.94
2018-12-31T08:57:33.867Z,1017.94
2018-12-31T08:58:33.856Z,1017.98
2018-12-31T08:59:33.846Z,1017.95
2018-12-31T09:00:33.835Z,1017.97
2018-12-31T09:01:33.824Z,1017.98
2018-12-31T09:02:33.814Z,1017.99
2018-12-31T09:03:33.803Z,1018.01
2018-12-31T09:04:33.791Z,1017.98
2018-12-31T09:05:33.781Z,1017.99
2018-12-31T09:06:33.771Z,1017.95
2018-12-31T09:07:33.762Z,1017.96
2018-12-31T09:08:34.787Z,1017.96
2018-12-31T09:09:33.738Z,1017.96
2018-12-31T09:10:33.727Z,1017.95
2018-12-31T09:11:33.717Z,1017.97
2018-12-31T09:12:33.706Z,1017.93
2018-12-31T09:13:33.694Z,1017.92
2018-12-31T09:14:33.684Z,1017.93
2018-12-31T09:15:33.672Z,1017.92
2018-12-31T09:16:33.678Z,1017.95
2018-12-31T09:17:33.661Z,1017.95
2018-12-31T09:18:33.640Z,1017.94
2018-12-31T09:19:33.630Z,1017.97
2018-12-31T09:20:33.619Z,1017.98
2018-12-31T09:21:33.608Z,1018.00
2018-12-31T09:22:33.598Z,1017.99
2018-12-31T09:23:33.587Z,1018.05
2018-12-31T09:24:33.575Z,1018.00
2018-12-31T09:25:33.565Z,1018.06
2018-12-31T09:26:33.595Z,1018.07
2018-12-31T09:27:33.545Z,1018.07
2018-12-31T09:28:33.536Z,1018.08
2018-12-31T09:29:33.521Z,1018.07
2018-12-31T09:30:33.511Z,1018.06
2018-12-31T09:31:33.501Z,1018.06
2018-12-31T09:32:33.489Z,1018.09
2018-12-31T09:33:33.479Z,1018.07
2018-12-31T09:34:33.469Z,1018.04
2018-12-31T09:35:33.458Z,1018.08
2018-12-31T09:36:33.446Z,1018.07
2018-12-31T09:37:33.436Z,1018.10
2018-12-31T09:38:33.425Z,1018.09
2018-12-31T09:39:33.415Z,1018.10
2018-12-31T09:40:33.854Z,1018.10
2018-12-31T09:41:33.393Z,1018.10
2018-12-31T09:42:33.382Z,1018.12
2018-12-31T09:43:33.375Z,1018.11
2018-12-31T09:44:33.362Z,1018.13
2018-12-31T09:45:33.348Z,1018.06
2018-12-31T09:46:33.338Z,1018.03
2018-12-31T09:47:33.944Z,1018.04
2018-12-31T09:48:33.316Z,1018.08
2018-12-31T09:49:33.305Z,1018.12
2018-12-31T09:50:33.295Z,1018.10
2018-12-31T09:51:33.284Z,1018.07
2018-12-31T09:52:33.273Z,1018.10
2018-12-31T09:53:33.262Z,1018.07
2018-12-31T09:54:33.254Z,1018.07
2018-12-31T09:55:33.291Z,1018.09
2018-12-31T09:56:33.229Z,1018.10
2018-12-31T09:57:33.218Z,1018.07
2018-12-31T09:58:33.215Z,1018.11
2018-12-31T09:59:33.198Z,1018.15
2018-12-31T10:00:33.188Z,1018.11
2018-12-31T10:01:33.175Z,1018.13
2018-12-31T10:02:33.164Z,1018.10
2018-12-31T10:03:33.153Z,1018.11
2018-12-31T10:04:33.142Z,1018.11
2018-12-31T10:05:33.131Z,1018.09
2018-12-31T10:06:33.121Z,1018.14
2018-12-31T10:07:33.111Z,1018.12
2018-12-31T10:08:33.100Z,1018.07
2018-12-31T10:09:33.095Z,1018.11
2018-12-31T10:10:33.077Z,1018.11
2018-12-31T10:11:33.067Z,1018.12
2018-12-31T10:12:33.055Z,1018.12
2018-12-31T10:13:33.047Z,1018.11
2018-12-31T10:14:33.034Z,1018.11
2018-12-31T10:15:33.024Z,1018.09
2018-12-31T10:16:33.013Z,1018.11
2018-12-31T10:17:33.002Z,1018.13
2018-12-31T10:18:32.991Z,1018.12
2018-12-31T10:19:32.980Z,1018.11
2018-12-31T10:22:59.759Z,1018.04
2018-12-31T10:23:59.748Z,1018.06
2018-12-31T10:24:59.737Z,1018.02
2018-12-31T10:25:59.726Z,1018.02
2018-12-31T10:26:59.716Z,1018.03
2018-12-31T10:27:59.705Z,1018.04
2018-12-31T10:28:59.694Z,1018.04
2018-12-31T10:29:59.683Z,1018.03
2018-12-31T10:30:59.673Z,1017.96
2018-12-31T10:31:59.663Z,1017.97
2018-12-31T10:32:59.652Z,1017.96
2018-12-31T10:33:59.640Z,1017.96
2018-12-31T10:34:59.634Z,1017.93
2018-12-31T10:35:59.619Z,1017.96
2018-12-31T10:36:59.607Z,1017.93
2018-12-31T10:37:59.599Z,1018.00
2018-12-31T10:38:59.586Z,1017.91
2018-12-31T10:39:59.576Z,1017.97
2018-12-31T10:40:59.564Z,1017.94
2018-12-31T10:41:59.553Z,1017.96
2018-12-31T10:42:59.543Z,1017.92
2018-12-31T10:43:59.533Z,1017.92
2018-12-31T10:44:59.521Z,1017.93
2018-12-31T10:45:59.511Z,1017.94
2018-12-31T10:46:59.500Z,1017.94
2018-12-31T10:47:59.490Z,1017.94
2018-12-31T10:48:59.478Z,1017.98
2018-12-31T10:49:59.468Z,1017.94
2018-12-31T10:50:59.458Z,1017.96
2018-12-31T10:51:59.447Z,1017.93
2018-12-31T10:52:59.436Z,1017.93
2018-12-31T10:53:59.426Z,1017.92
2018-12-31T10:54:59.415Z,1017.94
2018-12-31T10:55:59.406Z,1017.93
2018-12-31T10:57:13.419Z,1017.92
2018-12-31T10:58:13.491Z,1017.91
2018-12-31T10:59:13.457Z,1017.88
2018-12-31T11:00:13.441Z,1017.87
2018-12-31T11:01:13.379Z,1017.90
2018-12-31T11:02:13.448Z,1017.89
2018-12-31T11:03:13.482Z,1017.89
2018-12-31T11:04:13.385Z,1017.86
2018-12-31T11:05:13.365Z,1017.89
2018-12-31T11:06:13.345Z,1017.88
2018-12-31T11:07:13.332Z,1017.84
2018-12-31T11:08:13.344Z,1017.82
2018-12-31T11:09:13.313Z,1017.82
2018-12-31T11:10:13.295Z,1017.84
2018-12-31T11:11:13.317Z,1017.83
2018-12-31T11:12:13.331Z,1017.83
2018-12-31T11:13:13.322Z,1017.83
2018-12-31T11:14:13.297Z,1017.82
2018-12-31T11:15:13.295Z,1017.81
2018-12-31T11:16:13.235Z,1017.85
2018-12-31T11:17:13.207Z,1017.85
2018-12-31T11:18:13.206Z,1017.81
2018-12-31T11:19:13.396Z,1017.83
2018-12-31T11:20:13.189Z,1017.84
2018-12-31T11:21:13.192Z,1017.80
2018-12-31T11:22:13.218Z,1017.82
2018-12-31T11:23:13.209Z,1017.81
2018-12-31T11:24:13.172Z,1017.78
2018-12-31T11:25:13.154Z,1017.78
2018-12-31T11:26:13.208Z,1017.73
2018-12-31T11:27:13.140Z,1017.72
2018-12-31T11:28:13.112Z,1017.75
2018-12-31T11:29:13.149Z,1017.74
2018-12-31T11:30:13.080Z,1017.76
2018-12-31T11:31:13.054Z,1017.76
2018-12-31T11:32:13.055Z,1017.76
2018-12-31T11:33:13.024Z,1017.74
2018-12-31T11:34:13.078Z,1017.69
2018-12-31T11:35:13.049Z,1017.70
2018-12-31T11:36:13.000Z,1017.73
2018-12-31T11:37:13.096Z,1017.68
2018-12-31T11:38:13.008Z,1017.67
2018-12-31T11:39:12.966Z,1017.66
2018-12-31T11:40:13.069Z,1017.59
2018-12-31T11:41:12.960Z,1017.62
2018-12-31T11:42:12.951Z,1017.57
2018-12-31T11:43:12.938Z,1017.59
2018-12-31T11:44:12.915Z,1017.55
2018-12-31T11:45:12.899Z,1017.56
2018-12-31T11:46:12.882Z,1017.60
2018-12-31T11:47:12.864Z,1017.50
2018-12-31T11:48:12.870Z,1017.51
2018-12-31T11:49:12.923Z,1017.48
2018-12-31T11:50:12.854Z,1017.52
2018-12-31T11:51:12.862Z,1017.52
2018-12-31T11:52:12.863Z,1017.49
2018-12-31T11:53:12.773Z,1017.47
2018-12-31T11:54:13.017Z,1017.47
2018-12-31T11:55:12.815Z,1017.44
2018-12-31T11:56:12.818Z,1017.36
2018-12-31T11:57:12.772Z,1017.42
2018-12-31T11:58:12.758Z,1017.41
2018-12-31T11:59:12.723Z,1017.35
2018-12-31T12:00:12.694Z,1017.36
2018-12-31T12:01:12.711Z,1017.32
2018-12-31T12:02:12.711Z,1017.33
2018-12-31T12:03:12.674Z,1017.33
2018-12-31T12:04:12.695Z,1017.35
2018-12-31T12:05:12.659Z,1017.33
2018-12-31T12:06:12.714Z,1017.31
2018-12-31T12:07:12.692Z,1017.28
2018-12-31T12:08:12.676Z,1017.28